• Join FlightAware (Why Join?)
  • Login
  • US Flag 
09:16AM EDT


 

Airport Tracker/Info


-or-


 

Live Flight TrackerFlight Track Log ✈ AAY842 ✈ 31-Mar-2014 ✈ KPIE - KSYR

Flight Track Log - Related Links

Times and Time Zones

All times are in EDT time to prevent confusion due to time zone crossing. See the AAY842 flight status page for this flight to view local times or setup timezone preferences in your user account.

Time Position Orientation Groundspeed Altitude Reporting Facility
EDT Latitude Longitude Course Direction KTS MPH feet Rate Location/Type
03:23PM 27.9333 -82.6833 360° North 163 188 600  Level Tampa TRACON
03:23PM 27.9667 -82.6833 360° North 202 232 1,800 1,080 Climbing Tampa TRACON
03:24PM 28.0333 -82.6667 12° North 262 302 2,500 1,740 Climbing Tampa TRACON
03:25PM 28.1000 -82.6667 360° North 257 296 5,300 2,460 Climbing Tampa TRACON
03:28PM 28.2750 -82.6475 North 292 336 10,600 1,980 Climbing Jacksonville Center
03:29PM 28.3667 -82.6447 North 309 356 11,700 1,440 Climbing Jacksonville Center
03:30PM 28.4628 -82.6564 354° North 354 407 13,500 2,160 Climbing Jacksonville Center
03:31PM 28.5672 -82.6844 347° North 374 430 16,100 2,040 Climbing Jacksonville Center
03:32PM 28.6778 -82.7128 347° North 386 444 17,600 1,440 Climbing Jacksonville Center
03:33PM 28.7925 -82.7386 349° North 407 468 19,000 1,800 Climbing Jacksonville Center
03:34PM 28.9136 -82.7456 357° North 419 482 21,200 1,740 Climbing Jacksonville Center
03:35PM 29.0369 -82.7547 356° North 431 496 22,500 1,260 Climbing Jacksonville Center
03:36PM 29.1619 -82.7594 358° North 436 502 23,800 1,560 Climbing Jacksonville Center
03:37PM 29.2914 -82.7689 356° North 449 517 25,700 1,560 Climbing Jacksonville Center
03:38PM 29.4147 -82.7781 356° North 449 517 27,000 1,200 Climbing Jacksonville Center
03:39PM 29.5419 -82.7564 North 449 517 28,100 1,200 Climbing Jacksonville Center
03:40PM 29.6694 -82.7325 North 454 522 29,400 1,200 Climbing Jacksonville Center
03:41PM 29.7925 -82.7083 10° North 460 529 30,600 780 Climbing Jacksonville Center
03:42PM 29.9197 -82.6864 North 460 529 31,000 180 Climbing Jacksonville Center
03:43PM 30.0408 -82.6525 14° North 453 521 31,000 180 Level Jacksonville Center
03:44PM 30.1639 -82.6308 North 448 516 31,400 420 Climbing Jacksonville Center
03:45PM 30.2911 -82.5992 12° North 448 516 31,900 780 Climbing Jacksonville Center
03:46PM 30.4186 -82.5747 North 453 521 33,000 480 Climbing Jacksonville Center
03:47PM 30.5542 -82.5331 15° North 453 521 32,900  Descending Jacksonville Center
03:48PM 30.6750 -82.4819 20° North 453 521 33,000  Climbing Jacksonville Center
03:49PM 30.7981 -82.4428 15° North 453 521 33,000  Level Jacksonville Center
03:50PM 30.9211 -82.3936 19° North 458 527 33,000  Level Jacksonville Center
03:51PM 31.0378 -82.3469 19° North 458 527 33,000  Level Jacksonville Center
03:52PM 31.1525 -82.2978 20° North 448 516 33,000  Level Jacksonville Center
03:53PM 31.2714 -82.2558 17° North 436 502 33,000  Level Jacksonville Center
03:54PM 31.3858 -82.2064 20° North 441 507 33,000  Level Jacksonville Center
03:55PM 31.5067 -82.1617 18° North 446 513 33,000  Level Jacksonville Center
03:56PM 31.6192 -82.1119 21° North 440 506 33,000  Level Jacksonville Center
03:57PM 31.7275 -82.0694 18° North 444 511 33,000  Level Jacksonville Center
03:58PM 31.8567 -82.0144 20° North 446 513 33,000  Level Jacksonville Center
03:59PM 31.9753 -81.9717 17° North 441 507 33,000  Level Jacksonville Center
04:00PM 32.0792 -81.9167 24° Northeast 446 513 33,000  Level Jacksonville Center
04:01PM 32.2061 -81.8614 20° North 451 519 33,000  Level Jacksonville Center
04:02PM 32.3206 -81.8036 23° Northeast 450 518 33,000  Level Jacksonville Center
04:03PM 32.4267 -81.7556 21° North 450 518 33,000  Level Jacksonville Center
04:04PM 32.5511 -81.6922 23° Northeast 445 512 33,000  Level Jacksonville Center
04:05PM 32.6656 -81.6439 20° North 438 504 33,000  Level Jacksonville Center
04:06PM 32.7672 -81.5881 25° Northeast 431 496 33,000  Level Jacksonville Center
04:07PM 32.8836 -81.5344 21° North 431 496 33,000  Level Jacksonville Center
04:08PM 32.9978 -81.4783 22° Northeast 436 502 33,000  Level Jacksonville Center
04:09PM 33.1142 -81.4219 22° Northeast 436 502 33,000  Level Jacksonville Center
04:10PM 33.2386 -81.3628 22° Northeast 436 502 33,000  Level Jacksonville Center
04:11PM 33.3403 -81.3114 23° Northeast 436 502 33,000  Level Jacksonville Center
04:12PM 33.4564 -81.2519 23° Northeast 436 502 33,000  Level Jacksonville Center
04:13PM 33.5725 -81.2000 20° North 436 502 33,000  Level Jacksonville Center
04:14PM 33.6844 -81.1403 24° Northeast 436 502 33,000  Level Jacksonville Center
04:15PM 33.8006 -81.0831 22° Northeast 436 502 33,000  Level Jacksonville Center
04:16PM 33.9103 -81.0283 22° Northeast 436 502 33,000  Level Jacksonville Center
04:17PM 34.0264 -80.9781 20° North 431 496 33,000  Level Jacksonville Center
04:19PM 34.2625 -80.8644 22° Northeast 444 511 33,000  Level Atlanta Center
04:20PM 34.3819 -80.7994 24° Northeast 437 503 33,000  Level Atlanta Center
04:21PM 34.4953 -80.7547 18° North 427 491 33,000  Level Atlanta Center
04:22PM 34.6064 -80.6950 24° Northeast 432 497 33,000  Level Atlanta Center
04:23PM 34.7197 -80.6397 22° Northeast 432 497 33,000  Level Atlanta Center
04:24PM 34.8328 -80.5794 24° Northeast 432 497 33,000  Level Atlanta Center
04:25PM 34.9503 -80.5267 20° North 432 497 33,000  Level Atlanta Center
04:26PM 35.0611 -80.4661 24° Northeast 432 497 33,000  Level Atlanta Center
04:27PM 35.1744 -80.4128 21° North 432 497 33,000  Level Atlanta Center
04:28PM 35.2853 -80.3544 23° Northeast 432 497 33,000  Level Atlanta Center
04:29PM 35.4006 -80.3036 20° North 432 497 33,000  Level Atlanta Center
04:30PM 35.5114 -80.2400 25° Northeast 432 497 33,000  Level Atlanta Center
04:31PM 35.6244 -80.1886 20° North 432 497 33,000  Level Atlanta Center
04:33PM 35.8297 -80.0856 22° Northeast 440 506 33,000  Level Washington Center
04:34PM 35.9294 -80.0375 21° North 434 499 33,000  Level Washington Center
04:35PM 36.0442 -79.9822 21° North 434 499 33,000  Level Washington Center
04:36PM 36.1472 -79.9006 33° Northeast 434 499 33,000  Level Washington Center
04:37PM 36.2525 -79.8214 31° Northeast 434 499 33,000  Level Washington Center
04:38PM 36.3622 -79.7267 35° Northeast 434 499 33,000  Level Washington Center
04:39PM 36.4542 -79.6567 31° Northeast 434 499 33,000  Level Washington Center
04:40PM 36.5531 -79.5739 34° Northeast 429 494 33,000  Level Washington Center
04:41PM 36.6578 -79.4939 31° Northeast 429 494 33,000  Level Washington Center
04:42PM 36.7694 -79.4008 34° Northeast 435 501 33,000  Level Washington Center
04:43PM 36.8739 -79.3256 30° Northeast 435 501 33,000  Level Washington Center
04:44PM 36.9706 -79.2419 35° Northeast 430 495 33,000  Level Washington Center
04:45PM 37.0625 -79.1681 33° Northeast 430 495 33,000  Level Washington Center
04:46PM 37.1650 -79.0869 32° Northeast 430 495 33,000  Level Washington Center
04:47PM 37.2653 -79.0081 32° Northeast 430 495 33,000  Level Washington Center
04:48PM 37.3764 -78.9161 33° Northeast 425 489 33,000  Level Washington Center
04:49PM 37.4767 -78.8369 32° Northeast 425 489 33,000  Level Washington Center
04:50PM 37.5747 -78.7544 34° Northeast 425 489 33,000  Level Washington Center
04:51PM 37.6642 -78.6847 32° Northeast 425 489 33,000  Level Washington Center
04:52PM 37.7642 -78.6022 33° Northeast 425 489 33,000  Level Washington Center
04:53PM 37.8644 -78.5194 33° Northeast 419 482 33,000  Level Washington Center
04:54PM 37.9708 -78.4314 33° Northeast 419 482 33,000  Level Washington Center
04:55PM 38.0644 -78.3506 34° Northeast 413 475 33,000  Level Washington Center
04:56PM 38.1622 -78.2697 33° Northeast 413 475 33,000  Level Washington Center
04:57PM 38.2578 -78.1911 33° Northeast 413 475 33,000  Level Washington Center
04:58PM 38.3533 -78.1097 34° Northeast 408 470 33,000  Level Washington Center
04:59PM 38.4489 -78.0281 34° Northeast 408 470 33,000  Level Washington Center
05:00PM 38.5464 -77.9464 33° Northeast 408 470 33,000  Level Washington Center
05:01PM 38.6417 -77.8669 33° Northeast 408 470 33,000  Level Washington Center
05:02PM 38.7447 -77.8247 18° North 393 452 33,000  Level Washington Center
05:03PM 38.8500 -77.7642 24° Northeast 392 451 33,000  Level Washington Center
05:04PM 38.9444 -77.7242 18° North 395 455 33,000  Level Washington Center
05:05PM 39.0581 -77.6686 21° North 390 449 33,000  Level Washington Center
05:07PM 39.2989 -77.5567 20° North 391 450 33,000  Level New York Center
05:08PM 39.4017 -77.5128 18° North 391 450 33,000  Level New York Center
05:09PM 39.5050 -77.4553 23° Northeast 391 450 33,000  Level New York Center
05:10PM 39.6097 -77.4111 18° North 391 450 33,000  Level New York Center
05:11PM 39.7125 -77.3589 21° North 397 457 33,000  Level New York Center
05:12PM 39.8175 -77.3119 19° North 397 457 33,000  Level New York Center
05:13PM 39.9206 -77.2567 22° Northeast 397 457 33,000  Level New York Center
05:14PM 40.0253 -77.2094 19° North 397 457 33,000 -600 Level New York Center
05:15PM 40.1372 -77.1464 23° Northeast 397 457 31,800 -1,080 Descending New York Center
05:16PM 40.2439 -77.0989 19° North 397 457 30,900 -960 Descending New York Center
05:17PM 40.3492 -77.0433 22° Northeast 397 457 29,900 -960 Descending New York Center
05:18PM 40.4578 -76.9986 17° North 397 457 29,000 -480 Descending New York Center
05:19PM 40.5672 -76.9375 23° Northeast 402 463 29,000  Level New York Center
05:20PM 40.6739 -76.8894 19° North 407 468 29,000  Level New York Center
05:21PM 40.7833 -76.8308 22° Northeast 407 468 29,000  Level New York Center
05:22PM 40.8919 -76.7828 18° North 407 468 29,000 -60 Level New York Center
05:23PM 41.0014 -76.7208 23° Northeast 412 474 28,900 -480 Descending New York Center
05:24PM 41.0972 -76.6797 18° North 412 474 28,100 -900 Descending New York Center
05:25PM 41.2064 -76.6231 21° North 412 474 27,100 -1,080 Descending New York Center
05:26PM 41.3303 -76.5592 21° North 423 487 26,000 -2,040 Descending New York Center
05:27PM 41.4347 -76.5100 19° North 423 487 23,100 -1,500 Descending New York Center
05:28PM 41.5458 -76.4531 21° North 423 487 23,000 -660 Descending New York Center
05:29PM 41.6567 -76.3986 20° North 423 487 21,800 -1,260 Descending New York Center
05:30PM 41.7617 -76.3381 23° Northeast 411 473 20,500 -1,320 Descending New York Center
05:31PM 41.8681 -76.2911 18° North 406 467 19,200 -1,380 Descending New York Center
05:32PM 41.9750 -76.2275 24° Northeast 386 444 17,800 -1,260 Descending New York Center
05:33PM 42.0706 -76.1850 18° North 383 441 16,700 -1,200 Descending New York Center
05:34PM 42.1664 -76.1369 20° North 378 435 15,400 -1,200 Descending New York Center
05:35PM 42.2625 -76.1308 North 359 413 14,300 -1,020 Descending New York Center
05:36PM 42.3500 -76.1150 North 324 373 13,400 -960 Descending Boston Center
05:37PM 42.4378 -76.1050 North 319 367 12,400 -1,020 Descending Boston Center
05:38PM 42.5225 -76.0961 North 311 358 11,400 -900 Descending Boston Center
05:39PM 42.6031 -76.0836 North 295 339 10,600 -1,080 Descending Boston Center
05:40PM 42.6889 -76.0803 North 258 297 9,300 -1,140 Descending Boston Center
05:41PM 42.7461 -76.0739 North 253 291 8,300 -1,380 Descending Boston Center
05:41PM 42.7608 -76.0708 North 241 277 7,900 -1,920 Descending Boston Center
05:42PM 42.8258 -76.0583 North 245 282 6,400 -1,620 Descending Boston Center
05:42PM 42.8256 -76.0564 101° East 234 269 6,300 -1,200 Descending Boston Center
05:43PM 42.8861 -76.0492 North 229 264 5,200 -1,200 Descending Boston Center
05:43PM 42.8864 -76.0492 360° North 216 249 5,100 -1,260 Descending Boston Center
05:44PM 42.9411 -76.0431 North 192 221 3,900 -1,200 Descending Boston Center
05:45PM 42.9928 -76.0272 13° North 189 217 2,700 -780 Descending Boston Center
05:46PM 43.0469 -76.0239 North 191 220 2,400 -840 Descending Boston Center
05:47PM 43.0853 -76.0597 326° Northwest 189 217 1,100 -1,020 Descending Boston Center
05:48PM 43.1100 -76.0961 313° West 160 184 300 -780 Descending Boston Center